»·PEaware :: N35583 KLAX-KMRY

N35583 :: KLAX-KMRY

FLIGHT INFORMATION

Flight Status: Arrived
Operator: Privately registered:
United States
More flights under this callsign
Pilot: Evan J. (56)
Aircraft: CESSNA 680 CITATION SOVEREIGN
(C680)
More flights by this aircraft type
Origin: KLAX Los Angeles Intl
United States
Destination: KMRY Monterey Peninsula
United States
More flights between these airports :: More routes between these airports
Route: +LAX VTU5 RZS J88 SNS MRY
File this flight plan on PilotEdge
Remarks:
Altitude:
(Current/Filed)
32,000ft
Speed:
(Current/Filed)
450kts
Departed: 08-Apr-12 08:18 PM
Arrived: 08-Apr-12 09:07 PM
Distance/Time
Traveled:
232nm/0:49
Distance/Time
To Go:
Arrived

Flight Plot

Page will automatically refresh every two minutes.

Flight plan parsing failed; only flown route is shown


Map Options




Map Legend


Flown Route
Filed Route
Departure Airport
Arrival Airport
Navaid (VOR, NDB)
Fix

Horizontal Profiles

Position Reports

Time Latitude Longitude Heading Altitude Ground
Speed
08-Apr-12 19:54 33.934139 -118.395058 81 129ft 0kts
08-Apr-12 19:55 33.934139 -118.395058 81 129ft 0kts
08-Apr-12 19:56 33.934139 -118.395058 81 129ft 0kts
08-Apr-12 19:57 33.934139 -118.395058 81 129ft 0kts
08-Apr-12 19:58 33.934139 -118.395058 81 129ft 0kts
08-Apr-12 19:59 33.934139 -118.395058 81 129ft 0kts
08-Apr-12 20:00 33.934139 -118.395058 81 129ft 0kts
08-Apr-12 20:01 33.934139 -118.395058 81 129ft 0kts
08-Apr-12 20:02 33.934139 -118.395058 81 129ft 0kts
08-Apr-12 20:03 33.934139 -118.395058 81 129ft 0kts
08-Apr-12 20:04 33.934139 -118.395058 81 129ft 0kts
08-Apr-12 20:05 33.934139 -118.395058 81 129ft 0kts
08-Apr-12 20:06 33.934139 -118.395058 81 129ft 0kts
08-Apr-12 20:07 33.934139 -118.395058 81 129ft 0kts
08-Apr-12 20:08 33.934139 -118.395058 81 129ft 0kts
08-Apr-12 20:09 33.934139 -118.395058 81 129ft 0kts
08-Apr-12 20:10 33.934139 -118.395058 81 129ft 0kts
08-Apr-12 20:11 33.934139 -118.395058 81 129ft 0kts
08-Apr-12 20:12 33.934145 -118.395011 81 129ft 2kts
08-Apr-12 20:13 33.935207 -118.391926 83 129ft 14kts
08-Apr-12 20:14 33.935726 -118.387024 82 129ft 14kts
08-Apr-12 20:15 33.936117 -118.383228 78 129ft 9kts
08-Apr-12 20:16 33.937488 -118.383083 265 129ft 0kts
08-Apr-12 20:17 33.936039 -118.398167 264 365ft 143kts
08-Apr-12 20:18 33.930579 -118.455543 264 2635ft 184kts
08-Apr-12 20:19 33.924406 -118.521157 263 6365ft 214kts
08-Apr-12 20:20 33.918886 -118.594780 280 10385ft 230kts
08-Apr-12 20:21 33.951425 -118.663847 296 13780ft 251kts
08-Apr-12 20:22 33.988259 -118.747905 295 15496ft 320kts
08-Apr-12 20:23 34.035097 -118.858740 295 17595ft 420kts
08-Apr-12 20:24 34.090145 -118.989623 295 21021ft 451kts
08-Apr-12 20:25 34.154064 -119.120022 301 24498ft 451kts
08-Apr-12 20:26 34.222672 -119.244384 301 27714ft 439kts
08-Apr-12 20:27 34.288494 -119.364336 301 30955ft 422kts
08-Apr-12 20:28 34.352233 -119.480896 301 32080ft 416kts
08-Apr-12 20:29 34.413367 -119.593389 300 32078ft 417kts
08-Apr-12 20:30 34.477243 -119.711257 299 32079ft 420kts
08-Apr-12 20:31 34.559427 -119.811953 321 32080ft 434kts
08-Apr-12 20:32 34.655169 -119.890921 321 32076ft 435kts
08-Apr-12 20:33 34.755351 -119.973812 321 32105ft 435kts
08-Apr-12 20:34 34.854005 -120.055660 322 32106ft 433kts
08-Apr-12 20:35 34.953250 -120.138236 323 32106ft 433kts
08-Apr-12 20:36 35.053548 -120.221942 323 32134ft 426kts
08-Apr-12 20:37 35.134114 -120.289372 323 32134ft 421kts
08-Apr-12 20:38 35.230181 -120.369984 324 32115ft 414kts
08-Apr-12 20:39 35.323781 -120.448726 324 32110ft 404kts
08-Apr-12 20:40 35.415443 -120.526055 324 32108ft 399kts
08-Apr-12 20:41 35.500025 -120.598049 323 32086ft 404kts
08-Apr-12 20:42 35.594119 -120.677955 320 32077ft 429kts
08-Apr-12 20:43 35.688987 -120.758766 319 32076ft 445kts
08-Apr-12 20:44 35.785993 -120.841436 318 31613ft 384kts
08-Apr-12 20:45 35.869795 -120.913266 318 28819ft 362kts
08-Apr-12 20:46 35.960143 -120.990789 317 25040ft 315kts
08-Apr-12 20:47 36.017886 -121.040511 317 22193ft 298kts
08-Apr-12 20:48 36.085956 -121.099256 318 19116ft 309kts
08-Apr-12 20:49 36.156259 -121.160002 319 16108ft 308kts
08-Apr-12 20:50 36.221423 -121.216521 315 13094ft 281kts
08-Apr-12 20:51 36.269276 -121.284235 305 10519ft 249kts
08-Apr-12 20:52 36.313305 -121.350834 305 8514ft 251kts
08-Apr-12 20:53 36.355479 -121.415854 305 7985ft 241kts
08-Apr-12 20:54 36.397178 -121.480609 305 7976ft 244kts
08-Apr-12 20:55 36.440347 -121.548135 305 7997ft 258kts
08-Apr-12 20:56 36.470499 -121.623963 284 7768ft 259kts
08-Apr-12 20:57 36.488897 -121.704324 284 6857ft 225kts
08-Apr-12 20:58 36.505791 -121.777395 285 5591ft 220kts
08-Apr-12 20:59 36.522790 -121.847168 286 4396ft 196kts
08-Apr-12 21:00 36.538551 -121.901958 289 3753ft 150kts
08-Apr-12 21:01 36.556163 -121.956427 290 3238ft 173kts
08-Apr-12 21:02 36.592529 -121.978175 22 2969ft 177kts
08-Apr-12 21:03 36.623977 -121.943225 112 2307ft 146kts
08-Apr-12 21:04 36.608325 -121.907349 118 1342ft 117kts
08-Apr-12 21:05 36.595925 -121.870781 115 610ft 113kts
08-Apr-12 21:06 36.586820 -121.845658 200 258ft 8kts
08-Apr-12 21:07 36.586555 -121.846183 291 258ft 0kts
08-Apr-12 21:08 36.587628 -121.849368 292 258ft 15kts
08-Apr-12 21:09 36.588951 -121.853713 254 258ft 7kts
08-Apr-12 21:10 36.588461 -121.854092 24 258ft 0kts

Navigation Log

Ident Type
Flight plan parsing failed, navigation log unavailable